createdAt,value
2023-05-25T00:02:31.441Z,95418.41
2023-05-25T00:05:04.474Z,95412.53
2023-05-25T00:07:51.313Z,95415.13
2023-05-25T00:10:24.973Z,95413.38
2023-05-25T00:13:11.385Z,95411.63
2023-05-25T00:15:44.607Z,95413.38
2023-05-25T00:18:31.330Z,95412.53
2023-05-25T00:21:06.792Z,95420.19
2023-05-25T00:23:53.345Z,95419.41
2023-05-25T00:26:26.422Z,95422.91
2023-05-25T00:29:13.353Z,95422.91
2023-05-25T00:31:46.439Z,95423.81
2023-05-25T00:34:33.349Z,95429.81
2023-05-25T00:37:06.452Z,95428.97
2023-05-25T00:39:53.343Z,95431.53
2023-05-25T00:42:28.175Z,95430.72
2023-05-25T00:45:22.359Z,95434.97
2023-05-25T00:48:18.379Z,95439.22
2023-05-25T00:51:12.358Z,95447.81
2023-05-25T00:53:59.356Z,95441.91
2023-05-25T00:56:39.524Z,95437.59
2023-05-25T00:59:42.346Z,95426.53
2023-05-25T01:02:20.903Z,95430.00
2023-05-25T01:05:09.360Z,95429.19
2023-05-25T01:07:43.488Z,95427.44
2023-05-25T01:10:32.393Z,95424.84
2023-05-25T01:13:08.452Z,95422.28
2023-05-25T01:15:56.399Z,95423.13
2023-05-25T01:18:29.475Z,95421.47
2023-05-25T01:21:26.383Z,95421.56
2023-05-25T01:24:05.511Z,95425.91
2023-05-25T01:27:02.374Z,95427.66
2023-05-25T01:29:39.474Z,95421.63
2023-05-25T01:32:27.422Z,95422.50
2023-05-25T01:35:02.502Z,95420.94
2023-05-25T01:37:56.438Z,95426.09
2023-05-25T01:40:36.423Z,95424.34
2023-05-25T01:43:30.395Z,95420.94
2023-05-25T01:46:42.515Z,95419.28
2023-05-25T01:49:38.390Z,95412.50
2023-05-25T01:52:24.504Z,95421.88
2023-05-25T01:55:25.382Z,95421.91
2023-05-25T01:58:09.444Z,95415.91
2023-05-25T02:01:04.409Z,95414.16
2023-05-25T02:04:00.420Z,95417.53
2023-05-25T02:06:47.395Z,95416.72
2023-05-25T02:09:27.388Z,95415.00
2023-05-25T02:12:21.406Z,95415.00
2023-05-25T02:15:08.403Z,95415.94
2023-05-25T02:17:41.567Z,95415.13
2023-05-25T02:20:28.559Z,95411.81
2023-05-25T02:23:08.434Z,95419.50
2023-05-25T02:26:02.421Z,95416.09
2023-05-25T02:28:49.396Z,95422.06
2023-05-25T02:31:22.627Z,95425.53
2023-05-25T02:34:09.422Z,95422.97
2023-05-25T02:36:43.439Z,95427.22
2023-05-25T02:39:32.464Z,95420.44
2023-05-25T02:42:05.986Z,95434.09
2023-05-25T02:44:54.432Z,95424.66
2023-05-25T02:47:27.562Z,95429.78
2023-05-25T02:50:14.406Z,95428.03
2023-05-25T02:52:47.519Z,95426.28
2023-05-25T02:55:34.432Z,95423.72
2023-05-25T02:58:07.995Z,95431.44
2023-05-25T03:00:54.467Z,95433.97
2023-05-25T03:03:27.522Z,95425.44
2023-05-25T03:06:14.447Z,95433.19
2023-05-25T03:08:47.523Z,95440.03
2023-05-25T03:11:35.456Z,95436.66
2023-05-25T03:14:15.414Z,95433.22
2023-05-25T03:17:09.437Z,95430.69
2023-05-25T03:20:03.466Z,95438.41
2023-05-25T03:22:57.426Z,95435.81
2023-05-25T03:25:44.675Z,95440.06
2023-05-25T03:28:18.524Z,95439.19
2023-05-25T03:31:05.436Z,95434.06
2023-05-25T03:33:48.441Z,95434.91
2023-05-25T03:36:37.668Z,95432.34
2023-05-25T03:39:12.570Z,95433.19
2023-05-25T03:41:59.438Z,95430.59
2023-05-25T03:44:32.550Z,95436.53
2023-05-25T03:47:20.442Z,95436.53
2023-05-25T03:49:53.561Z,95437.38
2023-05-25T03:52:40.446Z,95440.78
2023-05-25T03:55:15.275Z,95438.28
2023-05-25T03:58:02.438Z,95441.69
2023-05-25T04:00:42.451Z,95445.09
2023-05-25T04:03:36.753Z,95441.63
2023-05-25T04:06:25.535Z,95438.19
2023-05-25T04:08:59.533Z,95445.88
2023-05-25T04:11:46.434Z,95438.19
2023-05-25T04:14:21.262Z,95441.50
2023-05-25T04:17:08.452Z,95440.69
2023-05-25T04:19:41.708Z,95446.66
2023-05-25T04:22:28.469Z,95447.47
2023-05-25T04:25:01.564Z,95454.25
2023-05-25T04:27:48.440Z,95455.97
2023-05-25T04:30:29.480Z,95462.78
2023-05-25T04:33:24.516Z,95460.13
2023-05-25T04:36:20.458Z,95461.00
2023-05-25T04:39:10.455Z,95469.53
2023-05-25T04:41:43.592Z,95473.75
2023-05-25T04:44:37.459Z,95473.75
2023-05-25T04:47:25.503Z,95484.03
2023-05-25T04:49:59.574Z,95484.88
2023-05-25T04:52:46.461Z,95485.75
2023-05-25T04:55:26.515Z,95489.09
2023-05-25T04:58:20.469Z,95496.88
2023-05-25T05:01:07.563Z,95491.69
2023-05-25T05:03:40.605Z,95483.88
2023-05-25T05:06:28.459Z,95489.84
2023-05-25T05:09:01.592Z,95486.34
2023-05-25T05:11:48.484Z,95490.53
2023-05-25T05:14:21.584Z,95490.53
2023-05-25T05:17:08.476Z,95496.50
2023-05-25T05:19:48.496Z,95495.66
2023-05-25T05:22:42.503Z,95498.25
2023-05-25T05:25:36.470Z,95493.13
2023-05-25T05:28:33.487Z,95492.28
2023-05-25T05:31:27.514Z,95493.91
2023-05-25T05:34:21.501Z,95493.81
2023-05-25T05:37:15.501Z,95497.94
2023-05-25T05:40:09.508Z,95503.06
2023-05-25T05:42:56.500Z,95498.75
2023-05-25T05:45:29.590Z,95502.97
2023-05-25T05:48:16.492Z,95502.91
2023-05-25T05:50:49.737Z,95505.38
2023-05-25T05:53:36.526Z,95503.72
2023-05-25T05:56:11.327Z,95506.22
2023-05-25T05:59:00.488Z,95512.13
2023-05-25T06:01:33.601Z,95515.44
2023-05-25T06:04:21.501Z,95508.47
2023-05-25T06:06:55.848Z,95518.72
2023-05-25T06:09:42.513Z,95516.97
2023-05-25T06:12:31.582Z,95522.91
2023-05-25T06:15:18.516Z,95522.84
2023-05-25T06:17:51.635Z,95520.22
2023-05-25T06:20:38.613Z,95528.78
2023-05-25T06:23:20.530Z,95533.03
2023-05-25T06:26:20.511Z,95533.88
2023-05-25T06:29:07.506Z,95530.44
2023-05-25T06:31:47.570Z,95547.44
2023-05-25T06:34:35.940Z,95537.06
2023-05-25T06:37:10.894Z,95542.09
2023-05-25T06:39:57.775Z,95538.56
2023-05-25T06:42:30.616Z,95539.31
2023-05-25T06:45:17.577Z,95535.88
2023-05-25T06:47:50.676Z,95544.31
2023-05-25T06:50:37.516Z,95547.59
2023-05-25T06:53:17.525Z,95547.50
2023-05-25T06:56:11.547Z,95545.72
2023-05-25T06:59:05.550Z,95543.03
2023-05-25T07:02:02.540Z,95548.94
2023-05-25T07:04:49.582Z,95549.75
2023-05-25T07:07:29.552Z,95555.88
2023-05-25T07:10:16.583Z,95551.59
2023-05-25T07:12:56.541Z,95555.91
2023-05-25T07:15:43.848Z,95558.28
2023-05-25T07:18:24.575Z,95566.59
2023-05-25T07:21:18.537Z,95557.03
2023-05-25T07:24:05.557Z,95559.44
2023-05-25T07:26:47.572Z,95562.63
2023-05-25T07:29:44.540Z,95555.56
2023-05-25T07:32:31.565Z,95563.97
2023-05-25T07:35:04.650Z,95565.50
2023-05-25T07:37:51.563Z,95571.34
2023-05-25T07:40:31.575Z,95566.88
2023-05-25T07:43:25.556Z,95566.66
2023-05-25T07:46:19.592Z,95568.31
2023-05-25T07:49:06.557Z,95569.09
2023-05-25T07:51:46.581Z,95569.84
2023-05-25T07:54:40.640Z,95563.72
2023-05-25T07:57:34.567Z,95568.63
2023-05-25T08:00:28.645Z,95572.91
2023-05-25T08:03:15.638Z,95573.78
2023-05-25T08:05:55.571Z,95571.19
2023-05-25T08:08:51.569Z,95571.13
2023-05-25T08:11:38.585Z,95572.78
2023-05-25T08:14:18.580Z,95570.88
2023-05-25T08:17:05.587Z,95576.66
2023-05-25T08:19:38.686Z,95580.84
2023-05-25T08:22:25.566Z,95572.31
2023-05-25T08:24:58.676Z,95569.72
2023-05-25T08:27:45.565Z,95563.84
2023-05-25T08:30:18.738Z,95572.22
2023-05-25T08:33:05.586Z,95566.81
2023-05-25T08:35:43.273Z,95561.13
2023-05-25T08:38:32.573Z,95558.63
2023-05-25T08:41:17.590Z,95564.53
2023-05-25T08:44:14.793Z,95558.44
2023-05-25T08:47:03.585Z,95561.09
2023-05-25T08:49:39.928Z,95564.88
2023-05-25T08:52:33.634Z,95569.28
2023-05-25T08:55:11.709Z,95572.56
2023-05-25T08:58:03.617Z,95571.66
2023-05-25T09:00:57.582Z,95571.25
2023-05-25T09:03:52.649Z,95573.47
2023-05-25T09:06:45.301Z,95575.28
2023-05-25T09:09:20.738Z,95585.41
2023-05-25T09:12:08.599Z,95577.84
2023-05-25T09:14:52.596Z,95579.84
2023-05-25T09:17:46.654Z,95578.47
2023-05-25T09:20:41.437Z,95585.53
2023-05-25T09:23:29.625Z,95584.72
2023-05-25T09:26:04.747Z,95588.84
2023-05-25T09:28:55.671Z,95596.03
2023-05-25T09:31:30.857Z,95592.13
2023-05-25T09:34:19.601Z,95590.41
2023-05-25T09:36:52.856Z,95592.72
2023-05-25T09:39:39.702Z,95599.19
2023-05-25T09:42:12.762Z,95593.66
2023-05-25T09:44:59.625Z,95595.91
2023-05-25T09:47:37.426Z,95598.94
2023-05-25T09:50:25.616Z,95589.63
2023-05-25T09:53:04.117Z,95588.50
2023-05-25T09:55:54.275Z,95581.13
2023-05-25T09:58:36.618Z,95590.94
2023-05-25T10:01:23.663Z,95588.56
2023-05-25T10:04:04.347Z,95581.47
2023-05-25T10:06:56.618Z,95585.28
2023-05-25T10:09:36.843Z,95578.19
2023-05-25T10:12:27.641Z,95584.44
2023-05-25T10:15:01.746Z,95583.94
2023-05-25T10:18:01.712Z,95581.53
2023-05-25T10:20:43.723Z,95591.00
2023-05-25T10:23:31.660Z,95577.78
2023-05-25T10:26:13.680Z,95577.63
2023-05-25T10:29:13.660Z,95574.09
2023-05-25T10:32:00.686Z,95568.53
2023-05-25T10:34:36.076Z,95572.44
2023-05-25T10:37:22.649Z,95564.25
2023-05-25T10:39:56.760Z,95560.16
2023-05-25T10:42:45.668Z,95559.41
2023-05-25T10:45:22.654Z,95563.53
2023-05-25T10:48:09.758Z,95559.66
2023-05-25T10:50:43.824Z,95561.34
2023-05-25T10:53:30.685Z,95560.59
2023-05-25T10:56:07.384Z,95557.81
2023-05-25T10:58:54.666Z,95560.56
2023-05-25T11:01:28.932Z,95561.84
2023-05-25T11:04:18.724Z,95560.59
2023-05-25T11:06:54.780Z,95559.59
2023-05-25T11:09:47.680Z,95554.94
2023-05-25T11:12:28.852Z,95561.75
2023-05-25T11:15:21.691Z,95544.69
2023-05-25T11:18:06.052Z,95549.66
2023-05-25T11:20:52.757Z,95542.50
2023-05-25T11:23:29.968Z,95542.00
2023-05-25T11:26:30.695Z,95543.72
2023-05-25T11:29:04.784Z,95537.00
2023-05-25T11:31:57.724Z,95536.69
2023-05-25T11:34:41.688Z,95523.41
2023-05-25T11:37:37.686Z,95532.81
2023-05-25T11:40:24.757Z,95519.72
2023-05-25T11:43:06.695Z,95527.53
2023-05-25T11:46:09.746Z,95523.97
2023-05-25T11:48:58.702Z,95527.28
2023-05-25T11:51:40.755Z,95522.22
2023-05-25T11:54:41.727Z,95528.09
2023-05-25T11:57:37.696Z,95522.72
2023-05-25T12:00:32.758Z,95519.84
2023-05-25T12:03:12.805Z,95516.16
2023-05-25T12:06:06.763Z,95523.16
2023-05-25T12:08:53.721Z,95511.13
2023-05-25T12:11:45.356Z,95513.56
2023-05-25T12:14:31.704Z,95506.00
2023-05-25T12:17:04.925Z,95504.41
2023-05-25T12:19:51.752Z,95512.47
2023-05-25T12:22:31.723Z,95504.56
2023-05-25T12:25:35.739Z,95503.88
2023-05-25T12:28:32.762Z,95498.38
2023-05-25T12:31:06.216Z,95503.66
2023-05-25T12:34:10.749Z,95496.19
2023-05-25T12:36:58.836Z,95495.75
2023-05-25T12:39:45.736Z,95488.69
2023-05-25T12:42:26.582Z,95495.59
2023-05-25T12:45:20.751Z,95500.50
2023-05-25T12:48:07.776Z,95496.84
2023-05-25T12:50:48.795Z,95493.69
2023-05-25T12:53:42.763Z,95488.59
2023-05-25T12:56:29.759Z,95494.09
2023-05-25T12:59:09.732Z,95489.13
2023-05-25T13:02:03.778Z,95484.09
2023-05-25T13:04:50.798Z,95487.50
2023-05-25T13:07:23.928Z,95479.94
2023-05-25T13:10:10.817Z,95481.28
2023-05-25T13:12:44.848Z,95482.22
2023-05-25T13:15:32.756Z,95471.97
2023-05-25T13:18:12.883Z,95468.50
2023-05-25T13:21:06.933Z,95464.03
2023-05-25T13:23:53.767Z,95464.72
2023-05-25T13:26:33.749Z,95457.69
2023-05-25T13:29:20.769Z,95462.97
2023-05-25T13:31:53.905Z,95458.63
2023-05-25T13:34:41.779Z,95451.88
2023-05-25T13:37:15.442Z,95451.09
2023-05-25T13:40:02.760Z,95454.84
2023-05-25T13:42:36.284Z,95452.16
2023-05-25T13:45:29.757Z,95448.50
2023-05-25T13:48:23.862Z,95449.13
2023-05-25T13:51:17.776Z,95451.81
2023-05-25T13:54:04.773Z,95448.47
2023-05-25T13:56:37.922Z,95439.88
2023-05-25T13:59:24.775Z,95441.84
2023-05-25T14:01:57.941Z,95442.06
2023-05-25T14:04:44.783Z,95442.38
2023-05-25T14:07:17.929Z,95436.56
2023-05-25T14:10:05.954Z,95435.84
2023-05-25T14:12:39.921Z,95431.72
2023-05-25T14:15:28.707Z,95436.84
2023-05-25T14:18:01.945Z,95434.31
2023-05-25T14:20:48.893Z,95429.97
2023-05-25T14:23:21.970Z,95442.31
2023-05-25T14:26:11.830Z,95440.03
2023-05-25T14:28:44.925Z,95437.72
2023-05-25T14:31:31.887Z,95431.91
2023-05-25T14:34:04.903Z,95430.16
2023-05-25T14:36:51.851Z,95433.59
2023-05-25T14:39:25.010Z,95439.59
2023-05-25T14:42:12.855Z,95434.03
2023-05-25T14:44:52.791Z,95443.25
2023-05-25T14:47:46.887Z,95434.19
2023-05-25T14:50:42.632Z,95433.75
2023-05-25T14:53:29.823Z,95433.97
2023-05-25T14:56:11.381Z,95432.19
2023-05-25T14:59:04.856Z,95437.53
2023-05-25T15:01:52.937Z,95448.88
2023-05-25T15:04:27.196Z,95439.03
2023-05-25T15:07:16.557Z,95445.63
2023-05-25T15:09:49.943Z,95450.16
2023-05-25T15:12:39.821Z,95453.22
2023-05-25T15:15:14.753Z,95456.34
2023-05-25T15:18:01.852Z,95456.94
2023-05-25T15:20:35.092Z,95457.41
2023-05-25T15:23:24.855Z,95462.28
2023-05-25T15:26:04.919Z,95464.75
2023-05-25T15:28:51.902Z,95475.06
2023-05-25T15:31:25.317Z,95481.50
2023-05-25T15:34:11.881Z,95488.38
2023-05-25T15:36:44.980Z,95494.16
2023-05-25T15:39:31.928Z,95495.59
2023-05-25T15:42:11.884Z,95485.66
2023-05-25T15:44:58.861Z,95482.94
2023-05-25T15:47:52.965Z,95496.13
2023-05-25T15:50:46.863Z,95491.44
2023-05-25T15:53:40.896Z,95487.72
2023-05-25T15:56:28.909Z,95493.16
2023-05-25T15:59:02.337Z,95494.50
2023-05-25T16:01:48.910Z,95488.66
2023-05-25T16:04:22.012Z,95491.16
2023-05-25T16:07:08.907Z,95493.97
2023-05-25T16:09:42.032Z,95490.59
2023-05-25T16:12:28.901Z,95491.59
2023-05-25T16:15:08.908Z,95487.41
2023-05-25T16:18:02.862Z,95493.50
2023-05-25T16:21:01.896Z,95487.63
2023-05-25T16:23:55.885Z,95496.38
2023-05-25T16:26:49.917Z,95493.88
2023-05-25T16:29:36.900Z,95492.13
2023-05-25T16:32:10.133Z,95488.72
2023-05-25T16:34:56.908Z,95485.34
2023-05-25T16:37:29.961Z,95483.63
2023-05-25T16:40:19.910Z,95481.09
2023-05-25T16:42:59.882Z,95482.84
2023-05-25T16:45:53.955Z,95484.53
2023-05-25T16:48:40.998Z,95487.28
2023-05-25T16:51:15.910Z,95479.66
2023-05-25T16:54:02.905Z,95472.91
2023-05-25T16:56:42.952Z,95482.44
2023-05-25T16:59:36.905Z,95478.31
2023-05-25T17:02:24.045Z,95476.75
2023-05-25T17:05:06.949Z,95475.22
2023-05-25T17:07:54.055Z,95492.63
2023-05-25T17:10:27.004Z,95496.31
2023-05-25T17:13:14.954Z,95490.34
2023-05-25T17:15:48.271Z,95500.69
2023-05-25T17:18:34.964Z,95501.78
2023-05-25T17:21:08.061Z,95501.97
2023-05-25T17:23:56.911Z,95495.25
2023-05-25T17:26:36.913Z,95500.44
2023-05-25T17:29:30.894Z,95496.22
2023-05-25T17:32:24.920Z,95494.56
2023-05-25T17:35:20.907Z,95498.97
2023-05-25T17:38:14.925Z,95487.13
2023-05-25T17:41:08.911Z,95506.03
2023-05-25T17:44:02.932Z,95500.09
2023-05-25T17:46:56.903Z,95502.69
2023-05-25T17:49:51.111Z,95498.44
2023-05-25T17:52:44.913Z,95508.78
2023-05-25T17:55:32.027Z,95504.66
2023-05-25T17:58:05.042Z,95505.66
2023-05-25T18:00:52.033Z,95513.41
2023-05-25T18:03:26.080Z,95510.06
2023-05-25T18:06:12.942Z,95510.13
2023-05-25T18:08:52.933Z,95508.53
2023-05-25T18:11:46.907Z,95513.78
2023-05-25T18:14:33.938Z,95514.84
2023-05-25T18:17:15.011Z,95510.63
2023-05-25T18:20:08.949Z,95519.31
2023-05-25T18:22:55.952Z,95519.47
2023-05-25T18:25:29.042Z,95523.81
2023-05-25T18:28:15.984Z,95528.16
2023-05-25T18:30:49.136Z,95529.06
2023-05-25T18:33:35.979Z,95528.22
2023-05-25T18:36:09.062Z,95525.69
2023-05-25T18:38:55.944Z,95530.94
2023-05-25T18:41:29.057Z,95530.13
2023-05-25T18:44:15.961Z,95526.75
2023-05-25T18:46:57.980Z,95533.63
2023-05-25T18:49:51.955Z,95539.69
2023-05-25T18:52:45.953Z,95543.19
2023-05-25T18:55:35.931Z,95546.75
2023-05-25T18:58:09.129Z,95541.63
2023-05-25T19:00:55.952Z,95558.84
2023-05-25T19:03:29.119Z,95554.63
2023-05-25T19:06:15.945Z,95558.94
2023-05-25T19:08:49.690Z,95558.88
2023-05-25T19:11:35.940Z,95557.22
2023-05-25T19:14:16.008Z,95558.13
2023-05-25T19:17:05.250Z,95560.72
2023-05-25T19:19:39.051Z,95565.13
2023-05-25T19:22:25.959Z,95561.75
2023-05-25T19:25:05.971Z,95566.03
2023-05-25T19:27:52.991Z,95560.94
2023-05-25T19:30:33.016Z,95577.31
2023-05-25T19:33:27.961Z,95572.31
2023-05-25T19:36:22.130Z,95568.03
2023-05-25T19:38:55.060Z,95569.81
2023-05-25T19:41:43.959Z,95581.00
2023-05-25T19:44:17.295Z,95581.94
2023-05-25T19:47:03.969Z,95582.03
2023-05-25T19:49:43.964Z,95586.34
2023-05-25T19:52:33.020Z,95587.19
2023-05-25T19:55:13.003Z,95590.72
2023-05-25T19:57:59.957Z,95592.53
2023-05-25T20:00:33.122Z,95592.56
2023-05-25T20:03:22.098Z,95590.88
2023-05-25T20:06:02.992Z,95587.44
2023-05-25T20:08:57.007Z,95586.59
2023-05-25T20:11:43.967Z,95584.94
2023-05-25T20:14:18.569Z,95590.94
2023-05-25T20:17:06.993Z,95583.22
2023-05-25T20:19:40.180Z,95584.94
2023-05-25T20:22:28.002Z,95590.91
2023-05-25T20:25:07.986Z,95595.16
2023-05-25T20:27:54.994Z,95591.75
2023-05-25T20:30:28.091Z,95597.00
2023-05-25T20:33:14.987Z,95595.28
2023-05-25T20:35:48.297Z,95590.19
2023-05-25T20:38:34.983Z,95586.78
2023-05-25T20:41:14.997Z,95585.06
2023-05-25T20:44:09.028Z,95582.50
2023-05-25T20:47:10.983Z,95582.56
2023-05-25T20:50:05.026Z,95586.94
2023-05-25T20:52:59.011Z,95586.19
2023-05-25T20:55:46.081Z,95582.78
2023-05-25T20:58:20.195Z,95581.06
2023-05-25T21:01:07.035Z,95584.56
2023-05-25T21:03:48.125Z,95586.22
2023-05-25T21:06:35.051Z,95593.09
2023-05-25T21:09:09.103Z,95583.63
2023-05-25T21:11:56.058Z,95586.19
2023-05-25T21:14:29.874Z,95586.22
2023-05-25T21:17:17.095Z,95584.53
2023-05-25T21:19:50.294Z,95584.56
2023-05-25T21:22:37.057Z,95588.03
2023-05-25T21:25:11.699Z,95585.47
2023-05-25T21:27:58.036Z,95588.88
2023-05-25T21:30:31.134Z,95589.69
2023-05-25T21:33:18.054Z,95589.69
2023-05-25T21:35:58.034Z,95596.50
2023-05-25T21:38:52.041Z,95595.69
2023-05-25T21:41:39.016Z,95594.03
2023-05-25T21:44:12.136Z,95601.75
2023-05-25T21:47:06.077Z,95590.66
2023-05-25T21:50:00.054Z,95591.53
2023-05-25T21:52:48.053Z,95593.22
2023-05-25T21:55:28.050Z,95585.56
2023-05-25T21:58:15.039Z,95583.00
2023-05-25T22:00:48.245Z,95582.09
2023-05-25T22:03:35.223Z,95585.47
2023-05-25T22:06:08.163Z,95590.53
2023-05-25T22:08:55.090Z,95597.34
2023-05-25T22:11:35.068Z,95595.69
2023-05-25T22:14:22.030Z,95594.84
2023-05-25T22:16:55.237Z,95594.00
2023-05-25T22:19:44.836Z,95597.41
2023-05-25T22:22:18.127Z,95591.53
2023-05-25T22:25:05.175Z,95595.88
2023-05-25T22:27:39.171Z,95594.94
2023-05-25T22:30:26.072Z,95594.88
2023-05-25T22:32:59.301Z,95599.16
2023-05-25T22:35:46.305Z,95594.03
2023-05-25T22:38:20.173Z,95593.19
2023-05-25T22:41:07.090Z,95600.81
2023-05-25T22:43:40.168Z,95604.22
2023-05-25T22:46:34.097Z,95594.78
2023-05-25T22:49:28.073Z,95599.03
2023-05-25T22:52:18.094Z,95600.69
2023-05-25T22:54:58.053Z,95605.78
2023-05-25T22:57:52.056Z,95599.78
2023-05-25T23:00:39.097Z,95598.13
2023-05-25T23:03:12.345Z,95598.13
2023-05-25T23:05:59.073Z,95592.91
2023-05-25T23:08:32.252Z,95588.59
2023-05-25T23:11:19.089Z,95594.53
2023-05-25T23:13:54.735Z,95596.28
2023-05-25T23:16:41.208Z,95599.69
2023-05-25T23:19:14.180Z,95600.47
2023-05-25T23:22:01.084Z,95600.50
2023-05-25T23:24:41.090Z,95596.31
2023-05-25T23:27:35.109Z,95598.00
2023-05-25T23:30:29.080Z,95596.38
2023-05-25T23:33:17.096Z,95598.97
2023-05-25T23:35:58.116Z,95595.50
2023-05-25T23:38:52.137Z,95590.28
2023-05-25T23:41:46.086Z,95591.13
2023-05-25T23:44:33.084Z,95587.66
2023-05-25T23:47:06.261Z,95585.97
2023-05-25T23:49:53.081Z,95593.72
2023-05-25T23:52:26.178Z,95584.25
2023-05-25T23:55:14.082Z,95585.09
2023-05-25T23:57:47.229Z,95592.03
